sensor_id;sensor_type;location;lat;lon;timestamp;P1;durP1;ratioP1;P2;durP2;ratioP2
8066;SDS011;4076;48.076;9.118;2024-03-08T00:00:46;25.80;;;18.40;;
8066;SDS011;4076;48.076;9.118;2024-03-08T00:03:16;25.70;;;17.67;;
8066;SDS011;4076;48.076;9.118;2024-03-08T00:05:45;31.63;;;18.53;;
8066;SDS011;4076;48.076;9.118;2024-03-08T00:08:14;31.40;;;19.17;;
8066;SDS011;4076;48.076;9.118;2024-03-08T00:10:44;32.50;;;22.47;;
8066;SDS011;4076;48.076;9.118;2024-03-08T00:13:14;26.03;;;20.43;;
8066;SDS011;4076;48.076;9.118;2024-03-08T00:15:43;29.17;;;20.37;;
8066;SDS011;4076;48.076;9.118;2024-03-08T00:18:12;27.07;;;19.47;;
8066;SDS011;4076;48.076;9.118;2024-03-08T00:20:42;28.90;;;19.57;;
8066;SDS011;4076;48.076;9.118;2024-03-08T00:23:11;28.77;;;19.13;;
8066;SDS011;4076;48.076;9.118;2024-03-08T00:25:40;24.47;;;19.70;;
8066;SDS011;4076;48.076;9.118;2024-03-08T00:28:10;27.33;;;18.00;;
8066;SDS011;4076;48.076;9.118;2024-03-08T00:30:40;33.20;;;20.20;;
8066;SDS011;4076;48.076;9.118;2024-03-08T00:33:10;25.87;;;19.10;;
8066;SDS011;4076;48.076;9.118;2024-03-08T00:35:41;32.60;;;20.20;;
8066;SDS011;4076;48.076;9.118;2024-03-08T00:38:12;27.27;;;18.70;;
8066;SDS011;4076;48.076;9.118;2024-03-08T00:40:44;26.53;;;19.00;;
8066;SDS011;4076;48.076;9.118;2024-03-08T00:43:13;29.50;;;20.87;;
8066;SDS011;4076;48.076;9.118;2024-03-08T00:45:42;38.03;;;21.23;;
8066;SDS011;4076;48.076;9.118;2024-03-08T00:48:11;32.27;;;18.47;;
8066;SDS011;4076;48.076;9.118;2024-03-08T00:50:42;27.70;;;19.47;;
8066;SDS011;4076;48.076;9.118;2024-03-08T00:53:14;31.93;;;21.60;;
8066;SDS011;4076;48.076;9.118;2024-03-08T00:55:45;33.93;;;21.83;;
8066;SDS011;4076;48.076;9.118;2024-03-08T00:58:14;26.20;;;17.60;;
8066;SDS011;4076;48.076;9.118;2024-03-08T01:00:46;28.23;;;18.00;;
8066;SDS011;4076;48.076;9.118;2024-03-08T01:03:17;34.77;;;18.93;;
8066;SDS011;4076;48.076;9.118;2024-03-08T01:05:46;29.70;;;22.83;;
8066;SDS011;4076;48.076;9.118;2024-03-08T01:08:18;32.53;;;19.70;;
8066;SDS011;4076;48.076;9.118;2024-03-08T01:10:49;30.47;;;19.57;;
8066;SDS011;4076;48.076;9.118;2024-03-08T01:13:20;29.30;;;20.50;;
8066;SDS011;4076;48.076;9.118;2024-03-08T01:15:51;34.40;;;21.87;;
8066;SDS011;4076;48.076;9.118;2024-03-08T01:18:22;28.13;;;17.73;;
8066;SDS011;4076;48.076;9.118;2024-03-08T01:20:56;28.60;;;19.23;;
8066;SDS011;4076;48.076;9.118;2024-03-08T01:23:25;41.47;;;21.40;;
8066;SDS011;4076;48.076;9.118;2024-03-08T01:25:54;28.60;;;20.40;;
8066;SDS011;4076;48.076;9.118;2024-03-08T01:28:23;27.90;;;19.10;;
8066;SDS011;4076;48.076;9.118;2024-03-08T01:30:52;32.37;;;19.90;;
8066;SDS011;4076;48.076;9.118;2024-03-08T01:33:25;22.30;;;17.77;;
8066;SDS011;4076;48.076;9.118;2024-03-08T01:35:55;29.73;;;19.27;;
8066;SDS011;4076;48.076;9.118;2024-03-08T01:38:24;34.17;;;21.03;;
8066;SDS011;4076;48.076;9.118;2024-03-08T01:40:53;27.07;;;20.70;;
8066;SDS011;4076;48.076;9.118;2024-03-08T01:43:25;26.70;;;20.17;;
8066;SDS011;4076;48.076;9.118;2024-03-08T01:45:55;32.50;;;21.30;;
8066;SDS011;4076;48.076;9.118;2024-03-08T01:48:27;33.20;;;20.20;;
8066;SDS011;4076;48.076;9.118;2024-03-08T01:50:57;28.37;;;18.77;;
8066;SDS011;4076;48.076;9.118;2024-03-08T01:53:27;32.50;;;22.63;;
8066;SDS011;4076;48.076;9.118;2024-03-08T01:55:59;31.83;;;21.97;;
8066;SDS011;4076;48.076;9.118;2024-03-08T01:58:29;35.47;;;22.67;;
8066;SDS011;4076;48.076;9.118;2024-03-08T02:00:58;35.43;;;22.17;;
8066;SDS011;4076;48.076;9.118;2024-03-08T02:03:30;37.33;;;21.63;;
8066;SDS011;4076;48.076;9.118;2024-03-08T02:06:01;36.37;;;24.00;;
8066;SDS011;4076;48.076;9.118;2024-03-08T02:08:33;35.20;;;23.53;;
8066;SDS011;4076;48.076;9.118;2024-03-08T02:11:03;33.13;;;20.27;;
8066;SDS011;4076;48.076;9.118;2024-03-08T02:13:33;35.20;;;24.77;;
8066;SDS011;4076;48.076;9.118;2024-03-08T02:16:02;31.73;;;20.73;;
8066;SDS011;4076;48.076;9.118;2024-03-08T02:18:33;34.67;;;20.70;;
8066;SDS011;4076;48.076;9.118;2024-03-08T02:21:05;32.90;;;23.50;;
8066;SDS011;4076;48.076;9.118;2024-03-08T02:23:35;29.17;;;21.13;;
8066;SDS011;4076;48.076;9.118;2024-03-08T02:26:05;35.83;;;24.33;;
8066;SDS011;4076;48.076;9.118;2024-03-08T02:28:36;31.83;;;20.53;;
8066;SDS011;4076;48.076;9.118;2024-03-08T02:31:08;39.00;;;24.87;;
8066;SDS011;4076;48.076;9.118;2024-03-08T02:33:39;31.30;;;22.27;;
8066;SDS011;4076;48.076;9.118;2024-03-08T02:36:12;34.30;;;21.80;;
8066;SDS011;4076;48.076;9.118;2024-03-08T02:38:43;36.10;;;21.20;;
8066;SDS011;4076;48.076;9.118;2024-03-08T02:41:15;41.20;;;25.37;;
8066;SDS011;4076;48.076;9.118;2024-03-08T02:43:48;36.53;;;22.73;;
8066;SDS011;4076;48.076;9.118;2024-03-08T02:46:20;33.27;;;22.10;;
8066;SDS011;4076;48.076;9.118;2024-03-08T02:48:49;37.60;;;22.60;;
8066;SDS011;4076;48.076;9.118;2024-03-08T02:51:20;35.00;;;26.47;;
8066;SDS011;4076;48.076;9.118;2024-03-08T02:53:52;32.87;;;23.87;;
8066;SDS011;4076;48.076;9.118;2024-03-08T02:56:23;35.90;;;23.57;;
8066;SDS011;4076;48.076;9.118;2024-03-08T02:58:59;39.90;;;21.90;;
8066;SDS011;4076;48.076;9.118;2024-03-08T03:01:31;41.47;;;22.47;;
8066;SDS011;4076;48.076;9.118;2024-03-08T03:04:03;35.63;;;23.30;;
8066;SDS011;4076;48.076;9.118;2024-03-08T03:06:37;37.53;;;24.53;;
8066;SDS011;4076;48.076;9.118;2024-03-08T03:09:11;36.90;;;22.90;;
8066;SDS011;4076;48.076;9.118;2024-03-08T03:11:48;31.93;;;22.37;;
8066;SDS011;4076;48.076;9.118;2024-03-08T03:14:20;36.20;;;23.47;;
8066;SDS011;4076;48.076;9.118;2024-03-08T03:16:52;40.40;;;24.67;;
8066;SDS011;4076;48.076;9.118;2024-03-08T03:19:23;41.90;;;26.37;;
8066;SDS011;4076;48.076;9.118;2024-03-08T03:21:55;34.37;;;24.80;;
8066;SDS011;4076;48.076;9.118;2024-03-08T03:24:26;40.53;;;23.00;;
8066;SDS011;4076;48.076;9.118;2024-03-08T03:26:57;31.97;;;24.00;;
8066;SDS011;4076;48.076;9.118;2024-03-08T03:29:36;35.93;;;21.80;;
8066;SDS011;4076;48.076;9.118;2024-03-08T03:32:14;38.63;;;24.20;;
8066;SDS011;4076;48.076;9.118;2024-03-08T03:34:50;40.77;;;25.13;;
8066;SDS011;4076;48.076;9.118;2024-03-08T03:37:23;35.30;;;24.20;;
8066;SDS011;4076;48.076;9.118;2024-03-08T03:39:59;36.77;;;25.20;;
8066;SDS011;4076;48.076;9.118;2024-03-08T03:42:33;31.13;;;28.03;;
8066;SDS011;4076;48.076;9.118;2024-03-08T03:45:06;37.40;;;21.37;;
8066;SDS011;4076;48.076;9.118;2024-03-08T03:47:45;34.67;;;22.37;;
8066;SDS011;4076;48.076;9.118;2024-03-08T03:50:25;37.03;;;23.10;;
8066;SDS011;4076;48.076;9.118;2024-03-08T03:53:03;45.47;;;22.83;;
8066;SDS011;4076;48.076;9.118;2024-03-08T03:55:43;29.73;;;19.87;;
8066;SDS011;4076;48.076;9.118;2024-03-08T03:58:24;28.03;;;19.47;;
8066;SDS011;4076;48.076;9.118;2024-03-08T04:01:05;34.00;;;19.30;;
8066;SDS011;4076;48.076;9.118;2024-03-08T04:03:46;39.00;;;24.30;;
8066;SDS011;4076;48.076;9.118;2024-03-08T04:06:26;40.97;;;22.60;;
8066;SDS011;4076;48.076;9.118;2024-03-08T04:09:23;56.97;;;26.70;;
8066;SDS011;4076;48.076;9.118;2024-03-08T04:12:34;33.87;;;22.77;;
8066;SDS011;4076;48.076;9.118;2024-03-08T04:15:04;34.63;;;22.33;;
8066;SDS011;4076;48.076;9.118;2024-03-08T04:17:32;39.63;;;25.90;;
8066;SDS011;4076;48.076;9.118;2024-03-08T04:20:02;35.80;;;23.00;;
8066;SDS011;4076;48.076;9.118;2024-03-08T04:22:35;31.20;;;21.40;;
8066;SDS011;4076;48.076;9.118;2024-03-08T04:25:02;39.67;;;23.83;;
8066;SDS011;4076;48.076;9.118;2024-03-08T04:27:34;32.00;;;21.47;;
8066;SDS011;4076;48.076;9.118;2024-03-08T04:30:03;38.23;;;21.20;;
8066;SDS011;4076;48.076;9.118;2024-03-08T04:32:32;34.67;;;21.57;;
8066;SDS011;4076;48.076;9.118;2024-03-08T04:35:01;35.40;;;24.10;;
8066;SDS011;4076;48.076;9.118;2024-03-08T04:37:28;44.00;;;25.07;;
8066;SDS011;4076;48.076;9.118;2024-03-08T04:39:55;35.00;;;20.73;;
8066;SDS011;4076;48.076;9.118;2024-03-08T04:42:24;35.87;;;24.10;;
8066;SDS011;4076;48.076;9.118;2024-03-08T04:44:54;38.60;;;24.57;;
8066;SDS011;4076;48.076;9.118;2024-03-08T04:47:22;37.73;;;24.77;;
8066;SDS011;4076;48.076;9.118;2024-03-08T04:49:51;36.83;;;23.33;;
8066;SDS011;4076;48.076;9.118;2024-03-08T04:52:19;41.57;;;22.83;;
8066;SDS011;4076;48.076;9.118;2024-03-08T04:54:48;32.13;;;23.67;;
8066;SDS011;4076;48.076;9.118;2024-03-08T04:57:17;43.60;;;26.80;;
8066;SDS011;4076;48.076;9.118;2024-03-08T04:59:45;48.93;;;26.83;;
8066;SDS011;4076;48.076;9.118;2024-03-08T05:02:14;42.30;;;22.73;;
8066;SDS011;4076;48.076;9.118;2024-03-08T05:04:43;37.80;;;22.90;;
8066;SDS011;4076;48.076;9.118;2024-03-08T05:07:12;35.53;;;26.03;;
8066;SDS011;4076;48.076;9.118;2024-03-08T05:09:40;39.17;;;25.33;;
8066;SDS011;4076;48.076;9.118;2024-03-08T05:12:16;40.10;;;23.83;;
8066;SDS011;4076;48.076;9.118;2024-03-08T05:14:45;36.60;;;24.80;;
8066;SDS011;4076;48.076;9.118;2024-03-08T05:17:14;45.00;;;24.63;;
8066;SDS011;4076;48.076;9.118;2024-03-08T05:19:43;34.50;;;21.30;;
8066;SDS011;4076;48.076;9.118;2024-03-08T05:22:12;37.27;;;22.37;;
8066;SDS011;4076;48.076;9.118;2024-03-08T05:24:41;40.67;;;26.70;;
8066;SDS011;4076;48.076;9.118;2024-03-08T05:27:09;42.23;;;22.33;;
8066;SDS011;4076;48.076;9.118;2024-03-08T05:29:38;37.93;;;26.03;;
8066;SDS011;4076;48.076;9.118;2024-03-08T05:32:07;39.10;;;23.00;;
8066;SDS011;4076;48.076;9.118;2024-03-08T05:34:37;37.93;;;22.00;;
8066;SDS011;4076;48.076;9.118;2024-03-08T05:37:04;32.23;;;22.03;;
8066;SDS011;4076;48.076;9.118;2024-03-08T05:39:32;39.23;;;25.43;;
8066;SDS011;4076;48.076;9.118;2024-03-08T05:41:59;37.03;;;22.13;;
8066;SDS011;4076;48.076;9.118;2024-03-08T05:44:26;37.47;;;21.20;;
8066;SDS011;4076;48.076;9.118;2024-03-08T05:46:55;32.37;;;21.73;;
8066;SDS011;4076;48.076;9.118;2024-03-08T05:49:24;39.40;;;25.40;;
8066;SDS011;4076;48.076;9.118;2024-03-08T05:51:51;34.27;;;21.73;;
8066;SDS011;4076;48.076;9.118;2024-03-08T05:54:19;55.33;;;27.70;;
8066;SDS011;4076;48.076;9.118;2024-03-08T05:56:49;45.60;;;25.90;;
8066;SDS011;4076;48.076;9.118;2024-03-08T05:59:17;39.27;;;23.33;;
8066;SDS011;4076;48.076;9.118;2024-03-08T06:01:45;40.07;;;25.30;;
8066;SDS011;4076;48.076;9.118;2024-03-08T06:04:14;42.13;;;23.50;;
8066;SDS011;4076;48.076;9.118;2024-03-08T06:06:43;39.97;;;24.80;;
8066;SDS011;4076;48.076;9.118;2024-03-08T06:09:10;36.23;;;24.57;;
8066;SDS011;4076;48.076;9.118;2024-03-08T06:11:41;40.30;;;24.50;;
8066;SDS011;4076;48.076;9.118;2024-03-08T06:14:10;42.00;;;29.30;;
8066;SDS011;4076;48.076;9.118;2024-03-08T06:16:37;43.83;;;24.70;;
8066;SDS011;4076;48.076;9.118;2024-03-08T06:19:06;44.57;;;25.30;;
8066;SDS011;4076;48.076;9.118;2024-03-08T06:21:33;40.67;;;25.80;;
8066;SDS011;4076;48.076;9.118;2024-03-08T06:24:00;46.50;;;26.37;;
8066;SDS011;4076;48.076;9.118;2024-03-08T06:26:27;36.27;;;23.80;;
8066;SDS011;4076;48.076;9.118;2024-03-08T06:28:55;35.80;;;24.13;;
8066;SDS011;4076;48.076;9.118;2024-03-08T06:31:22;44.13;;;26.70;;
8066;SDS011;4076;48.076;9.118;2024-03-08T06:33:49;41.47;;;24.30;;
8066;SDS011;4076;48.076;9.118;2024-03-08T06:36:19;42.77;;;23.80;;
8066;SDS011;4076;48.076;9.118;2024-03-08T06:38:46;36.87;;;23.00;;
8066;SDS011;4076;48.076;9.118;2024-03-08T06:41:15;35.70;;;22.87;;
8066;SDS011;4076;48.076;9.118;2024-03-08T06:43:44;35.97;;;22.23;;
8066;SDS011;4076;48.076;9.118;2024-03-08T06:46:16;39.97;;;21.47;;
8066;SDS011;4076;48.076;9.118;2024-03-08T06:48:45;34.63;;;20.93;;
8066;SDS011;4076;48.076;9.118;2024-03-08T06:51:14;38.50;;;22.80;;
8066;SDS011;4076;48.076;9.118;2024-03-08T06:53:43;43.57;;;24.03;;
8066;SDS011;4076;48.076;9.118;2024-03-08T06:56:10;43.80;;;24.00;;
8066;SDS011;4076;48.076;9.118;2024-03-08T06:58:40;29.97;;;19.00;;
8066;SDS011;4076;48.076;9.118;2024-03-08T07:01:10;37.83;;;22.10;;
8066;SDS011;4076;48.076;9.118;2024-03-08T07:03:41;38.57;;;20.87;;
8066;SDS011;4076;48.076;9.118;2024-03-08T07:06:10;35.43;;;22.50;;
8066;SDS011;4076;48.076;9.118;2024-03-08T07:08:37;35.13;;;21.70;;
8066;SDS011;4076;48.076;9.118;2024-03-08T07:11:04;33.07;;;18.60;;
8066;SDS011;4076;48.076;9.118;2024-03-08T07:13:31;32.07;;;20.83;;
8066;SDS011;4076;48.076;9.118;2024-03-08T07:15:58;40.03;;;19.63;;
8066;SDS011;4076;48.076;9.118;2024-03-08T07:18:26;42.53;;;23.93;;
8066;SDS011;4076;48.076;9.118;2024-03-08T07:20:54;35.47;;;22.70;;
8066;SDS011;4076;48.076;9.118;2024-03-08T07:23:22;33.13;;;21.20;;
8066;SDS011;4076;48.076;9.118;2024-03-08T07:26:09;38.87;;;21.77;;
8066;SDS011;4076;48.076;9.118;2024-03-08T07:28:38;31.83;;;22.67;;
8066;SDS011;4076;48.076;9.118;2024-03-08T07:31:07;36.13;;;25.07;;
8066;SDS011;4076;48.076;9.118;2024-03-08T07:33:48;38.67;;;22.63;;
8066;SDS011;4076;48.076;9.118;2024-03-08T07:36:18;34.00;;;21.57;;
8066;SDS011;4076;48.076;9.118;2024-03-08T07:38:49;32.27;;;19.40;;
8066;SDS011;4076;48.076;9.118;2024-03-08T07:41:18;28.27;;;20.00;;
8066;SDS011;4076;48.076;9.118;2024-03-08T07:43:48;37.50;;;22.77;;
8066;SDS011;4076;48.076;9.118;2024-03-08T07:46:17;34.93;;;20.87;;
8066;SDS011;4076;48.076;9.118;2024-03-08T07:48:45;34.47;;;23.60;;
8066;SDS011;4076;48.076;9.118;2024-03-08T07:51:17;37.90;;;20.30;;
8066;SDS011;4076;48.076;9.118;2024-03-08T07:53:46;33.53;;;19.47;;
8066;SDS011;4076;48.076;9.118;2024-03-08T07:56:15;32.27;;;19.80;;
8066;SDS011;4076;48.076;9.118;2024-03-08T07:58:46;34.43;;;24.53;;
8066;SDS011;4076;48.076;9.118;2024-03-08T08:01:16;37.63;;;23.13;;
8066;SDS011;4076;48.076;9.118;2024-03-08T08:03:43;28.37;;;20.67;;
8066;SDS011;4076;48.076;9.118;2024-03-08T08:06:11;34.60;;;21.67;;
8066;SDS011;4076;48.076;9.118;2024-03-08T08:08:43;38.63;;;21.50;;
8066;SDS011;4076;48.076;9.118;2024-03-08T08:11:12;33.30;;;21.03;;
8066;SDS011;4076;48.076;9.118;2024-03-08T08:13:42;34.90;;;22.60;;
8066;SDS011;4076;48.076;9.118;2024-03-08T08:16:09;34.10;;;19.43;;
8066;SDS011;4076;48.076;9.118;2024-03-08T08:18:38;28.43;;;22.00;;
8066;SDS011;4076;48.076;9.118;2024-03-08T08:21:05;30.37;;;23.67;;
8066;SDS011;4076;48.076;9.118;2024-03-08T08:23:33;30.90;;;21.30;;
8066;SDS011;4076;48.076;9.118;2024-03-08T08:26:00;33.03;;;20.50;;
8066;SDS011;4076;48.076;9.118;2024-03-08T08:28:29;33.47;;;21.70;;
8066;SDS011;4076;48.076;9.118;2024-03-08T08:30:56;31.73;;;20.10;;
8066;SDS011;4076;48.076;9.118;2024-03-08T08:33:25;29.00;;;20.07;;
8066;SDS011;4076;48.076;9.118;2024-03-08T08:35:52;31.53;;;21.17;;
8066;SDS011;4076;48.076;9.118;2024-03-08T08:38:21;26.90;;;17.97;;
8066;SDS011;4076;48.076;9.118;2024-03-08T08:40:50;28.10;;;18.27;;
8066;SDS011;4076;48.076;9.118;2024-03-08T08:43:19;31.53;;;19.33;;
8066;SDS011;4076;48.076;9.118;2024-03-08T08:45:49;29.53;;;19.07;;
8066;SDS011;4076;48.076;9.118;2024-03-08T08:48:19;32.17;;;18.53;;
8066;SDS011;4076;48.076;9.118;2024-03-08T08:50:46;29.37;;;21.47;;
8066;SDS011;4076;48.076;9.118;2024-03-08T08:53:17;27.53;;;18.10;;
8066;SDS011;4076;48.076;9.118;2024-03-08T08:55:44;31.47;;;21.60;;
8066;SDS011;4076;48.076;9.118;2024-03-08T08:58:13;30.20;;;19.07;;
8066;SDS011;4076;48.076;9.118;2024-03-08T09:00:40;27.60;;;18.07;;
8066;SDS011;4076;48.076;9.118;2024-03-08T09:03:09;33.03;;;19.10;;
8066;SDS011;4076;48.076;9.118;2024-03-08T09:05:37;26.00;;;17.30;;
8066;SDS011;4076;48.076;9.118;2024-03-08T09:08:04;24.60;;;17.80;;
8066;SDS011;4076;48.076;9.118;2024-03-08T09:10:33;27.40;;;19.23;;
8066;SDS011;4076;48.076;9.118;2024-03-08T09:13:00;34.47;;;17.00;;
8066;SDS011;4076;48.076;9.118;2024-03-08T09:15:29;29.40;;;18.97;;
8066;SDS011;4076;48.076;9.118;2024-03-08T09:17:56;30.43;;;18.70;;
8066;SDS011;4076;48.076;9.118;2024-03-08T09:20:25;27.90;;;18.23;;
8066;SDS011;4076;48.076;9.118;2024-03-08T09:22:56;30.20;;;19.50;;
8066;SDS011;4076;48.076;9.118;2024-03-08T09:25:23;29.30;;;16.87;;
8066;SDS011;4076;48.076;9.118;2024-03-08T09:27:51;26.30;;;20.10;;
8066;SDS011;4076;48.076;9.118;2024-03-08T09:30:19;26.97;;;15.90;;
8066;SDS011;4076;48.076;9.118;2024-03-08T09:32:48;26.03;;;16.70;;
8066;SDS011;4076;48.076;9.118;2024-03-08T09:35:17;26.47;;;17.53;;
8066;SDS011;4076;48.076;9.118;2024-03-08T09:37:44;27.67;;;17.03;;
8066;SDS011;4076;48.076;9.118;2024-03-08T09:40:16;28.80;;;16.80;;
8066;SDS011;4076;48.076;9.118;2024-03-08T09:42:45;22.30;;;14.70;;
8066;SDS011;4076;48.076;9.118;2024-03-08T09:45:12;25.80;;;17.00;;
8066;SDS011;4076;48.076;9.118;2024-03-08T09:47:42;23.30;;;17.50;;
8066;SDS011;4076;48.076;9.118;2024-03-08T09:50:10;31.30;;;20.93;;
8066;SDS011;4076;48.076;9.118;2024-03-08T09:52:40;26.23;;;18.43;;
8066;SDS011;4076;48.076;9.118;2024-03-08T09:55:10;30.03;;;19.00;;
8066;SDS011;4076;48.076;9.118;2024-03-08T09:57:42;26.60;;;16.80;;
8066;SDS011;4076;48.076;9.118;2024-03-08T10:00:31;27.33;;;17.60;;
8066;SDS011;4076;48.076;9.118;2024-03-08T10:03:00;23.60;;;15.57;;
8066;SDS011;4076;48.076;9.118;2024-03-08T10:05:28;33.63;;;21.70;;
8066;SDS011;4076;48.076;9.118;2024-03-08T10:07:55;25.43;;;15.67;;
8066;SDS011;4076;48.076;9.118;2024-03-08T10:10:23;22.80;;;16.23;;
8066;SDS011;4076;48.076;9.118;2024-03-08T10:12:51;38.30;;;18.63;;
8066;SDS011;4076;48.076;9.118;2024-03-08T10:15:20;23.97;;;19.23;;
8066;SDS011;4076;48.076;9.118;2024-03-08T10:17:47;27.10;;;18.63;;
8066;SDS011;4076;48.076;9.118;2024-03-08T10:20:16;30.63;;;18.40;;
8066;SDS011;4076;48.076;9.118;2024-03-08T10:22:44;27.37;;;16.93;;
8066;SDS011;4076;48.076;9.118;2024-03-08T10:25:11;23.70;;;16.37;;
8066;SDS011;4076;48.076;9.118;2024-03-08T10:27:40;18.37;;;14.20;;
8066;SDS011;4076;48.076;9.118;2024-03-08T10:30:10;24.13;;;15.03;;
8066;SDS011;4076;48.076;9.118;2024-03-08T10:32:40;24.33;;;16.70;;
8066;SDS011;4076;48.076;9.118;2024-03-08T10:35:08;18.63;;;14.87;;
8066;SDS011;4076;48.076;9.118;2024-03-08T10:37:47;17.57;;;13.50;;
8066;SDS011;4076;48.076;9.118;2024-03-08T10:40:25;21.90;;;16.60;;
8066;SDS011;4076;48.076;9.118;2024-03-08T10:42:55;20.13;;;14.27;;
8066;SDS011;4076;48.076;9.118;2024-03-08T10:45:29;21.47;;;13.03;;
8066;SDS011;4076;48.076;9.118;2024-03-08T10:48:09;21.47;;;14.13;;
8066;SDS011;4076;48.076;9.118;2024-03-08T10:50:40;25.27;;;17.10;;
8066;SDS011;4076;48.076;9.118;2024-03-08T10:53:15;20.00;;;15.03;;
8066;SDS011;4076;48.076;9.118;2024-03-08T10:55:46;22.10;;;15.40;;
8066;SDS011;4076;48.076;9.118;2024-03-08T10:58:18;22.73;;;14.17;;
8066;SDS011;4076;48.076;9.118;2024-03-08T11:00:48;24.17;;;15.57;;
8066;SDS011;4076;48.076;9.118;2024-03-08T11:06:18;21.60;;;13.33;;
8066;SDS011;4076;48.076;9.118;2024-03-08T11:08:48;25.47;;;15.83;;
8066;SDS011;4076;48.076;9.118;2024-03-08T11:11:23;17.43;;;13.23;;
8066;SDS011;4076;48.076;9.118;2024-03-08T11:13:55;22.27;;;15.30;;
8066;SDS011;4076;48.076;9.118;2024-03-08T11:19:00;22.40;;;14.10;;
8066;SDS011;4076;48.076;9.118;2024-03-08T11:21:35;19.80;;;14.90;;
8066;SDS011;4076;48.076;9.118;2024-03-08T11:26:36;24.30;;;16.80;;
8066;SDS011;4076;48.076;9.118;2024-03-08T11:34:32;23.70;;;15.33;;
8066;SDS011;4076;48.076;9.118;2024-03-08T11:37:04;17.93;;;14.73;;
8066;SDS011;4076;48.076;9.118;2024-03-08T11:39:34;23.57;;;16.10;;
8066;SDS011;4076;48.076;9.118;2024-03-08T11:42:04;18.13;;;14.70;;
8066;SDS011;4076;48.076;9.118;2024-03-08T11:44:33;18.30;;;14.07;;
8066;SDS011;4076;48.076;9.118;2024-03-08T11:47:08;19.00;;;13.80;;
8066;SDS011;4076;48.076;9.118;2024-03-08T11:49:38;25.37;;;18.07;;
8066;SDS011;4076;48.076;9.118;2024-03-08T11:52:13;18.67;;;14.70;;
8066;SDS011;4076;48.076;9.118;2024-03-08T11:54:43;22.47;;;15.23;;
8066;SDS011;4076;48.076;9.118;2024-03-08T11:57:12;27.23;;;16.17;;
8066;SDS011;4076;48.076;9.118;2024-03-08T11:59:41;20.90;;;14.80;;
8066;SDS011;4076;48.076;9.118;2024-03-08T12:02:11;21.70;;;14.60;;
8066;SDS011;4076;48.076;9.118;2024-03-08T12:04:40;21.27;;;15.50;;
8066;SDS011;4076;48.076;9.118;2024-03-08T12:07:11;18.23;;;12.90;;
8066;SDS011;4076;48.076;9.118;2024-03-08T12:09:43;21.53;;;15.27;;
8066;SDS011;4076;48.076;9.118;2024-03-08T12:12:13;19.07;;;13.07;;
8066;SDS011;4076;48.076;9.118;2024-03-08T12:14:43;16.40;;;12.00;;
8066;SDS011;4076;48.076;9.118;2024-03-08T12:17:12;18.97;;;13.23;;
8066;SDS011;4076;48.076;9.118;2024-03-08T12:19:45;22.10;;;12.80;;
8066;SDS011;4076;48.076;9.118;2024-03-08T12:22:14;22.57;;;14.37;;
8066;SDS011;4076;48.076;9.118;2024-03-08T12:24:43;18.33;;;12.77;;
8066;SDS011;4076;48.076;9.118;2024-03-08T12:27:19;19.73;;;15.27;;
8066;SDS011;4076;48.076;9.118;2024-03-08T12:29:47;22.67;;;13.63;;
8066;SDS011;4076;48.076;9.118;2024-03-08T12:32:20;18.17;;;13.00;;
8066;SDS011;4076;48.076;9.118;2024-03-08T12:34:52;15.40;;;13.07;;
8066;SDS011;4076;48.076;9.118;2024-03-08T12:37:21;21.03;;;16.00;;
8066;SDS011;4076;48.076;9.118;2024-03-08T12:39:50;17.47;;;13.50;;
8066;SDS011;4076;48.076;9.118;2024-03-08T12:42:20;13.07;;;11.70;;
8066;SDS011;4076;48.076;9.118;2024-03-08T12:44:52;17.10;;;13.07;;
8066;SDS011;4076;48.076;9.118;2024-03-08T12:47:21;20.23;;;14.97;;
8066;SDS011;4076;48.076;9.118;2024-03-08T12:49:54;18.20;;;13.67;;
8066;SDS011;4076;48.076;9.118;2024-03-08T12:52:24;16.53;;;14.43;;
8066;SDS011;4076;48.076;9.118;2024-03-08T12:54:55;19.53;;;14.43;;
8066;SDS011;4076;48.076;9.118;2024-03-08T12:57:28;21.70;;;14.20;;
8066;SDS011;4076;48.076;9.118;2024-03-08T12:59:58;14.97;;;12.23;;
8066;SDS011;4076;48.076;9.118;2024-03-08T13:02:28;19.43;;;13.40;;
8066;SDS011;4076;48.076;9.118;2024-03-08T13:04:57;23.37;;;14.40;;
8066;SDS011;4076;48.076;9.118;2024-03-08T13:07:29;18.07;;;12.27;;
8066;SDS011;4076;48.076;9.118;2024-03-08T13:09:58;17.53;;;12.83;;
8066;SDS011;4076;48.076;9.118;2024-03-08T13:12:28;19.13;;;13.30;;
8066;SDS011;4076;48.076;9.118;2024-03-08T13:15:02;15.90;;;11.70;;
8066;SDS011;4076;48.076;9.118;2024-03-08T13:17:33;19.03;;;14.80;;
8066;SDS011;4076;48.076;9.118;2024-03-08T13:20:05;20.23;;;13.53;;
8066;SDS011;4076;48.076;9.118;2024-03-08T13:22:34;17.47;;;12.70;;
8066;SDS011;4076;48.076;9.118;2024-03-08T13:25:03;12.33;;;10.33;;
8066;SDS011;4076;48.076;9.118;2024-03-08T13:27:38;18.67;;;13.73;;
8066;SDS011;4076;48.076;9.118;2024-03-08T13:30:10;21.30;;;14.37;;
8066;SDS011;4076;48.076;9.118;2024-03-08T13:32:43;17.67;;;12.87;;
8066;SDS011;4076;48.076;9.118;2024-03-08T13:35:13;16.90;;;11.80;;
8066;SDS011;4076;48.076;9.118;2024-03-08T13:37:49;21.43;;;15.13;;
8066;SDS011;4076;48.076;9.118;2024-03-08T13:40:18;16.70;;;11.67;;
8066;SDS011;4076;48.076;9.118;2024-03-08T13:42:47;40.33;;;13.70;;
8066;SDS011;4076;48.076;9.118;2024-03-08T13:45:16;16.87;;;12.10;;
8066;SDS011;4076;48.076;9.118;2024-03-08T13:47:48;18.47;;;14.63;;
8066;SDS011;4076;48.076;9.118;2024-03-08T13:50:17;19.43;;;15.20;;
8066;SDS011;4076;48.076;9.118;2024-03-08T13:52:47;23.13;;;15.90;;
8066;SDS011;4076;48.076;9.118;2024-03-08T13:55:17;17.97;;;12.57;;
8066;SDS011;4076;48.076;9.118;2024-03-08T13:57:52;21.00;;;13.23;;
8066;SDS011;4076;48.076;9.118;2024-03-08T14:00:22;22.27;;;15.00;;
8066;SDS011;4076;48.076;9.118;2024-03-08T14:02:57;22.37;;;14.37;;
8066;SDS011;4076;48.076;9.118;2024-03-08T14:05:35;19.40;;;14.07;;
8066;SDS011;4076;48.076;9.118;2024-03-08T14:08:04;17.50;;;12.87;;
8066;SDS011;4076;48.076;9.118;2024-03-08T14:10:37;23.30;;;15.10;;
8066;SDS011;4076;48.076;9.118;2024-03-08T14:13:07;19.03;;;14.03;;
8066;SDS011;4076;48.076;9.118;2024-03-08T14:15:37;16.37;;;13.50;;
8066;SDS011;4076;48.076;9.118;2024-03-08T14:18:11;31.33;;;15.53;;
8066;SDS011;4076;48.076;9.118;2024-03-08T14:20:40;22.97;;;14.03;;
8066;SDS011;4076;48.076;9.118;2024-03-08T14:23:09;15.80;;;13.10;;
8066;SDS011;4076;48.076;9.118;2024-03-08T14:25:38;23.83;;;15.20;;
8066;SDS011;4076;48.076;9.118;2024-03-08T14:28:07;24.17;;;17.23;;
8066;SDS011;4076;48.076;9.118;2024-03-08T14:30:37;17.40;;;12.43;;
8066;SDS011;4076;48.076;9.118;2024-03-08T14:33:07;15.97;;;12.93;;
8066;SDS011;4076;48.076;9.118;2024-03-08T14:35:38;21.70;;;15.07;;
8066;SDS011;4076;48.076;9.118;2024-03-08T14:38:08;21.40;;;15.13;;
8066;SDS011;4076;48.076;9.118;2024-03-08T14:40:37;21.30;;;14.20;;
8066;SDS011;4076;48.076;9.118;2024-03-08T14:43:10;19.00;;;14.40;;
8066;SDS011;4076;48.076;9.118;2024-03-08T14:45:40;19.20;;;15.10;;
8066;SDS011;4076;48.076;9.118;2024-03-08T14:48:12;20.40;;;14.80;;
8066;SDS011;4076;48.076;9.118;2024-03-08T14:50:41;19.20;;;15.68;;
8066;SDS011;4076;48.076;9.118;2024-03-08T14:53:12;21.17;;;14.67;;
8066;SDS011;4076;48.076;9.118;2024-03-08T14:55:42;17.50;;;12.30;;
8066;SDS011;4076;48.076;9.118;2024-03-08T14:58:12;25.10;;;16.90;;
8066;SDS011;4076;48.076;9.118;2024-03-08T15:00:42;19.10;;;13.43;;
8066;SDS011;4076;48.076;9.118;2024-03-08T15:03:11;22.47;;;15.43;;
8066;SDS011;4076;48.076;9.118;2024-03-08T15:05:45;23.13;;;14.50;;
8066;SDS011;4076;48.076;9.118;2024-03-08T15:08:16;18.93;;;14.40;;
8066;SDS011;4076;48.076;9.118;2024-03-08T15:10:48;20.10;;;14.37;;
8066;SDS011;4076;48.076;9.118;2024-03-08T15:13:20;17.00;;;13.90;;
8066;SDS011;4076;48.076;9.118;2024-03-08T15:15:52;23.80;;;17.93;;
8066;SDS011;4076;48.076;9.118;2024-03-08T15:18:22;22.07;;;14.50;;
8066;SDS011;4076;48.076;9.118;2024-03-08T15:20:55;20.07;;;14.33;;